Time;durP1;ratioP1;P1;durP2;ratioP2;P2;SDS_P1;SDS_P2;PMS_P1;PMS_P2;Temp;Humidity;BMP_temperature;BMP_pressure;BME280_temperature;BME280_humidity;BME280_pressure;Samples;Min_cycle;Max_cycle;Signal;HPM_P1;HPM_P2
2021/06/18 00:00:38;;;;;;;46.30;34.92;;;20.60;99.90;;;;;;5083158;28;20040;-81
2021/06/18 00:03:04;;;;;;;45.47;33.20;;;20.60;99.90;;;;;;5046537;28;20154;-80
2021/06/18 00:05:30;;;;;;;49.10;37.53;;;20.60;99.90;;;;;;5059201;28;20048;-80
2021/06/18 00:07:56;;;;;;;38.05;33.90;;;20.60;99.90;;;;;;5108621;28;20502;-81
2021/06/18 00:10:24;;;;;;;42.83;38.05;;;20.60;99.90;;;;;;5091431;28;20051;-81
2021/06/18 00:12:51;;;;;;;46.17;37.10;;;20.60;99.90;;;;;;5071402;28;20494;-80
2021/06/18 00:15:17;;;;;;;41.38;36.55;;;20.60;99.90;;;;;;5090001;28;20050;-81
2021/06/18 00:17:43;;;;;;;41.47;34.47;;;20.60;99.90;;;;;;5091271;28;20409;-80
2021/06/18 00:20:11;;;;;;;37.83;33.58;;;20.60;99.90;;;;;;5107985;28;20063;-80
2021/06/18 00:22:38;;;;;;;41.63;34.13;;;20.60;99.90;;;;;;5072477;28;20058;-81
2021/06/18 00:25:06;;;;;;;45.67;34.92;;;20.60;99.90;;;;;;5087663;28;20730;-81
2021/06/18 00:27:32;;;;;;;39.80;32.15;;;20.50;99.90;;;;;;5106093;28;20036;-80
2021/06/18 00:29:58;;;;;;;37.92;32.03;;;20.50;99.90;;;;;;5089729;28;20389;-80
2021/06/18 00:32:24;;;;;;;32.97;28.90;;;20.50;99.90;;;;;;5106926;28;20480;-81
2021/06/18 00:34:50;;;;;;;34.10;27.95;;;20.50;99.90;;;;;;5069006;28;20039;-80
2021/06/18 00:37:16;;;;;;;35.13;28.20;;;20.50;99.90;;;;;;5040076;28;20056;-81
2021/06/18 00:39:42;;;;;;;34.42;28.42;;;20.50;99.90;;;;;;5104732;28;20092;-80
2021/06/18 00:42:08;;;;;;;36.03;29.08;;;20.50;99.90;;;;;;5086803;28;20067;-80
2021/06/18 00:44:34;;;;;;;37.65;30.85;;;20.50;99.90;;;;;;5090759;28;20080;-81
2021/06/18 00:47:01;;;;;;;36.70;29.17;;;20.50;99.90;;;;;;5105842;28;20044;-81
2021/06/18 00:49:27;;;;;;;44.60;32.85;;;20.50;99.90;;;;;;5074646;28;20048;-81
2021/06/18 00:51:55;;;;;;;37.70;30.50;;;20.40;99.90;;;;;;5089238;28;20046;-81
2021/06/18 00:54:28;;;;;;;40.90;31.08;;;20.40;99.90;;;;;;5109346;28;20043;-81
2021/06/18 00:57:03;;;;;;;38.08;30.70;;;20.40;99.90;;;;;;5056198;28;20056;-81
2021/06/18 00:59:29;;;;;;;43.63;32.03;;;20.40;99.90;;;;;;5071145;27;20696;-81
2021/06/18 01:01:55;;;;;;;43.53;34.55;;;20.40;99.90;;;;;;5106527;28;20044;-81
2021/06/18 01:04:24;;;;;;;40.60;33.83;;;20.40;99.90;;;;;;5106764;27;20031;-80
2021/06/18 01:07:00;;;;;;;42.33;34.55;;;20.40;99.90;;;;;;5105322;28;20121;-81
2021/06/18 01:09:31;;;;;;;43.95;34.78;;;20.40;99.90;;;;;;5109096;28;20051;-81
2021/06/18 01:12:08;;;;;;;44.83;35.75;;;20.30;99.90;;;;;;5089526;27;20040;-81
2021/06/18 01:15:05;;;;;;;47.58;35.97;;;20.30;99.90;;;;;;5083697;28;20114;-81
2021/06/18 01:17:52;;;;;;;43.80;35.53;;;20.20;99.90;;;;;;5090006;28;20070;-81
2021/06/18 01:20:27;;;;;;;44.33;35.00;;;20.20;99.90;;;;;;5085869;28;20051;-81
2021/06/18 01:22:55;;;;;;;41.22;35.90;;;20.20;99.90;;;;;;5090276;28;20074;-81
2021/06/18 01:25:33;;;;;;;50.80;35.40;;;20.10;99.90;;;;;;5107024;27;20164;-80
2021/06/18 01:28:37;;;;;;;39.80;34.08;;;20.00;99.90;;;;;;5104966;28;20067;-81
2021/06/18 01:31:04;;;;;;;44.72;35.80;;;19.90;99.90;;;;;;5021270;28;20060;-81
2021/06/18 01:33:35;;;;;;;41.17;36.55;;;19.90;99.90;;;;;;5011476;28;20465;-81
2021/06/18 01:36:04;;;;;;;43.58;34.75;;;20.00;99.90;;;;;;5031456;28;20043;-81
2021/06/18 01:38:38;;;;;;;42.37;36.90;;;19.90;99.90;;;;;;5073559;28;20039;-81
2021/06/18 01:41:09;;;;;;;40.22;35.22;;;20.00;99.90;;;;;;5103469;28;20083;-81
2021/06/18 01:43:36;;;;;;;40.90;36.42;;;20.00;99.90;;;;;;5107508;28;20087;-80
2021/06/18 01:46:02;;;;;;;46.45;36.50;;;20.00;99.90;;;;;;5105809;28;20039;-81
2021/06/18 01:48:29;;;;;;;48.80;37.25;;;20.00;99.90;;;;;;5087173;28;20051;-81
2021/06/18 01:50:56;;;;;;;47.75;39.88;;;20.00;99.90;;;;;;5100935;28;20044;-81
2021/06/18 01:53:24;;;;;;;42.25;36.97;;;20.00;99.90;;;;;;5103861;28;20178;-81
2021/06/18 01:55:50;;;;;;;45.05;38.17;;;20.00;99.90;;;;;;5105598;28;20055;-80
2021/06/18 01:58:19;;;;;;;45.72;38.03;;;20.00;99.90;;;;;;5087624;28;20127;-81
2021/06/18 02:00:49;;;;;;;44.33;37.20;;;20.00;99.90;;;;;;5106166;28;20048;-80
2021/06/18 02:03:17;;;;;;;43.97;38.15;;;20.10;99.90;;;;;;5086132;28;20131;-81
2021/06/18 02:05:45;;;;;;;48.35;37.78;;;20.10;99.90;;;;;;5103536;27;20498;-81
2021/06/18 02:08:13;;;;;;;44.45;38.67;;;20.10;99.90;;;;;;5070503;28;20055;-81
2021/06/18 02:10:41;;;;;;;47.15;39.40;;;20.00;99.90;;;;;;5107341;27;20058;-81
2021/06/18 02:13:09;;;;;;;44.55;37.80;;;19.90;99.90;;;;;;5108133;28;20047;-81
2021/06/18 02:15:38;;;;;;;41.15;35.22;;;19.90;99.90;;;;;;5063812;28;20046;-81
2021/06/18 02:18:07;;;;;;;47.22;38.80;;;19.90;99.90;;;;;;5087984;28;20048;-81
2021/06/18 02:20:34;;;;;;;50.10;37.55;;;19.90;99.90;;;;;;5108094;27;20102;-81
2021/06/18 02:23:00;;;;;;;46.75;36.35;;;19.90;99.90;;;;;;5073456;27;21240;-80
2021/06/18 02:25:31;;;;;;;43.67;37.45;;;19.90;99.90;;;;;;5082484;28;20414;-80
2021/06/18 02:27:59;;;;;;;43.50;36.60;;;19.90;99.90;;;;;;5064188;28;20051;-81
2021/06/18 02:30:25;;;;;;;42.88;36.90;;;19.90;99.90;;;;;;5106659;28;20051;-81
2021/06/18 02:32:51;;;;;;;43.28;35.53;;;19.90;99.90;;;;;;5088447;28;20486;-80
2021/06/18 02:35:17;;;;;;;40.60;33.97;;;19.90;99.90;;;;;;5084918;28;20485;-81
2021/06/18 02:37:43;;;;;;;38.55;33.97;;;19.90;99.90;;;;;;5055859;28;20050;-81
2021/06/18 02:40:09;;;;;;;42.13;35.03;;;19.90;99.90;;;;;;5069789;28;20051;-80
2021/06/18 02:42:35;;;;;;;39.22;33.17;;;19.90;99.90;;;;;;5107361;28;20089;-81
2021/06/18 02:45:03;;;;;;;38.47;33.95;;;19.90;99.90;;;;;;5085505;27;20097;-81
2021/06/18 02:47:49;;;;;;;43.10;34.88;;;19.90;99.90;;;;;;5085773;28;20048;-80
2021/06/18 02:50:40;;;;;;;42.72;34.13;;;19.90;99.90;;;;;;5104773;28;20131;-81
2021/06/18 02:53:18;;;;;;;39.47;34.70;;;19.90;99.90;;;;;;5105598;28;20053;-80
2021/06/18 02:55:53;;;;;;;41.95;33.65;;;19.90;99.90;;;;;;5102746;28;20050;-80
2021/06/18 02:58:40;;;;;;;44.20;33.67;;;19.90;99.90;;;;;;5085177;28;20096;-81
2021/06/18 03:01:07;;;;;;;39.88;32.35;;;19.90;99.90;;;;;;5104540;28;20407;-81
2021/06/18 03:03:44;;;;;;;42.00;35.08;;;19.90;99.90;;;;;;5088811;28;20487;-81
2021/06/18 03:06:15;;;;;;;41.28;35.35;;;19.90;99.90;;;;;;5084582;28;20085;-81
2021/06/18 03:08:46;;;;;;;40.30;34.05;;;19.90;99.90;;;;;;5066387;28;20050;-81
2021/06/18 03:11:12;;;;;;;37.20;33.10;;;19.90;99.90;;;;;;5107217;28;20407;-80
2021/06/18 03:13:46;;;;;;;41.38;33.10;;;19.90;99.90;;;;;;5105381;28;20048;-81
2021/06/18 03:16:13;;;;;;;37.30;33.25;;;19.90;99.90;;;;;;5089123;28;20051;-80
2021/06/18 03:18:43;;;;;;;35.55;31.55;;;19.90;99.90;;;;;;5086886;28;20040;-81
2021/06/18 03:21:10;;;;;;;34.40;28.67;;;19.90;99.90;;;;;;5088884;28;20056;-80
2021/06/18 03:23:37;;;;;;;38.55;33.97;;;19.90;99.90;;;;;;5106621;28;20486;-81
2021/06/18 03:26:05;;;;;;;38.63;32.90;;;19.90;99.90;;;;;;5083754;28;20040;-81
2021/06/18 03:28:33;;;;;;;40.55;33.80;;;19.90;99.90;;;;;;5088025;28;20044;-80
2021/06/18 03:31:01;;;;;;;37.42;33.42;;;19.90;99.90;;;;;;5107568;28;20503;-81
2021/06/18 03:33:28;;;;;;;40.72;32.30;;;19.90;99.90;;;;;;5074949;28;20036;-80
2021/06/18 03:35:55;;;;;;;37.72;33.70;;;19.90;99.90;;;;;;5090160;28;20039;-81
2021/06/18 03:38:21;;;;;;;38.95;32.85;;;19.90;99.90;;;;;;5090147;27;20043;-80
2021/06/18 03:40:49;;;;;;;34.70;30.67;;;19.90;99.90;;;;;;5073122;28;20807;-81
2021/06/18 03:43:15;;;;;;;38.13;32.03;;;19.90;99.90;;;;;;5090746;28;20096;-81
2021/06/18 03:45:48;;;;;;;48.08;35.72;;;19.90;99.90;;;;;;5073728;28;20122;-81
2021/06/18 03:48:16;;;;;;;42.65;37.67;;;19.90;99.90;;;;;;5109079;28;20495;-81
2021/06/18 03:50:43;;;;;;;42.42;37.75;;;19.90;99.90;;;;;;5090300;28;20038;-80
2021/06/18 03:53:10;;;;;;;46.25;39.92;;;19.80;99.90;;;;;;5071209;28;20106;-80
2021/06/18 03:55:37;;;;;;;46.08;40.15;;;19.80;99.90;;;;;;5109221;28;20051;-81
2021/06/18 03:58:04;;;;;;;49.20;43.40;;;19.70;99.90;;;;;;5090614;27;20067;-80
2021/06/18 04:00:36;;;;;;;47.78;42.17;;;19.60;99.90;;;;;;5106217;28;20051;-81
2021/06/18 04:03:02;;;;;;;51.57;43.37;;;19.60;99.90;;;;;;5103140;28;20118;-80
2021/06/18 04:05:29;;;;;;;51.08;44.53;;;19.50;99.90;;;;;;5090098;28;20373;-81
2021/06/18 04:07:57;;;;;;;51.50;44.47;;;19.40;99.90;;;;;;5068626;28;21449;-81
2021/06/18 04:10:24;;;;;;;58.50;45.90;;;19.40;99.90;;;;;;5060507;28;20144;-81
2021/06/18 04:12:53;;;;;;;54.95;43.50;;;19.30;99.90;;;;;;5078266;28;20055;-81
2021/06/18 04:15:22;;;;;;;49.13;43.75;;;19.30;99.90;;;;;;5047307;28;20061;-80
2021/06/18 04:17:49;;;;;;;55.30;45.58;;;19.30;99.90;;;;;;5080363;28;20036;-81
2021/06/18 04:20:18;;;;;;;51.33;44.85;;;19.20;99.90;;;;;;5075691;28;20120;-81
2021/06/18 04:22:45;;;;;;;48.65;40.78;;;19.30;99.90;;;;;;5097559;28;20051;-80
2021/06/18 04:25:12;;;;;;;45.25;37.33;;;19.40;99.90;;;;;;5067153;28;20040;-81
2021/06/18 04:27:38;;;;;;;47.78;39.40;;;19.40;99.90;;;;;;5095097;28;20503;-80
2021/06/18 04:30:10;;;;;;;51.25;41.78;;;19.40;99.90;;;;;;5071592;28;20422;-81
2021/06/18 04:32:36;;;;;;;53.70;41.90;;;19.40;99.90;;;;;;5075079;28;20403;-80
2021/06/18 04:35:05;;;;;;;47.13;40.17;;;19.40;99.90;;;;;;5055451;28;20052;-81
2021/06/18 04:37:33;;;;;;;54.97;42.00;;;19.30;99.90;;;;;;5072223;28;20052;-81
2021/06/18 04:39:59;;;;;;;52.88;43.05;;;19.40;99.90;;;;;;5071652;28;20492;-81
2021/06/18 04:42:25;;;;;;;55.97;43.35;;;19.30;99.90;;;;;;5072256;28;20970;-80
2021/06/18 04:44:51;;;;;;;50.03;41.83;;;19.30;99.90;;;;;;5095476;28;20557;-81
2021/06/18 04:47:18;;;;;;;57.20;42.25;;;19.30;99.90;;;;;;5076476;28;20052;-80
2021/06/18 04:49:48;;;;;;;56.28;42.03;;;19.20;99.90;;;;;;5093459;28;20044;-80
2021/06/18 04:52:15;;;;;;;58.50;43.70;;;19.20;99.90;;;;;;5055492;28;20487;-81
2021/06/18 04:54:41;;;;;;;57.35;42.42;;;19.30;99.90;;;;;;5051345;28;20036;-80
2021/06/18 04:57:07;;;;;;;60.95;43.00;;;19.20;99.90;;;;;;5055493;28;20067;-80
2021/06/18 04:59:37;;;;;;;57.90;42.00;;;19.20;99.90;;;;;;5071351;28;20529;-81
2021/06/18 05:02:04;;;;;;;56.85;42.65;;;19.20;99.90;;;;;;5089510;28;20407;-81
2021/06/18 05:04:30;;;;;;;56.70;41.63;;;19.30;99.90;;;;;;5088567;28;20052;-81
2021/06/18 05:06:56;;;;;;;54.55;37.38;;;19.30;99.90;;;;;;5074834;28;20040;-80
2021/06/18 05:09:22;;;;;;;51.25;36.42;;;19.30;99.90;;;;;;5070770;28;20057;-81
2021/06/18 05:11:48;;;;;;;45.95;34.38;;;19.30;99.90;;;;;;5077200;28;20061;-81
2021/06/18 05:14:14;;;;;;;53.40;35.83;;;19.30;99.90;;;;;;5071516;28;20720;-81
2021/06/18 05:16:40;;;;;;;40.80;31.50;;;19.30;99.90;;;;;;5080642;28;20085;-81
2021/06/18 05:19:06;;;;;;;42.38;31.23;;;19.30;99.90;;;;;;5089942;28;20076;-81
2021/06/18 05:21:33;;;;;;;35.70;28.85;;;19.20;99.90;;;;;;5037455;28;20059;-80
2021/06/18 05:23:59;;;;;;;36.30;28.98;;;19.20;99.90;;;;;;5068986;28;20041;-81
2021/06/18 05:26:25;;;;;;;36.22;27.25;;;19.20;99.90;;;;;;5089305;28;20692;-80
2021/06/18 05:28:51;;;;;;;38.53;28.58;;;19.20;99.90;;;;;;5067379;28;20045;-80
2021/06/18 05:31:17;;;;;;;37.40;29.00;;;19.20;99.90;;;;;;5080035;28;20498;-81
2021/06/18 05:33:43;;;;;;;38.50;29.17;;;19.20;99.90;;;;;;5053983;28;20052;-80
2021/06/18 05:36:09;;;;;;;40.53;28.65;;;19.20;99.90;;;;;;5035949;28;20052;-81
2021/06/18 05:38:35;;;;;;;30.30;24.67;;;19.20;99.90;;;;;;5075696;28;20032;-80
2021/06/18 05:41:00;;;;;;;30.30;24.13;;;19.20;99.90;;;;;;5057163;28;20131;-80
2021/06/18 05:43:27;;;;;;;26.17;22.27;;;19.20;99.90;;;;;;5051202;28;20072;-81
2021/06/18 05:45:53;;;;;;;31.60;24.30;;;19.20;99.90;;;;;;5075750;28;20067;-81
2021/06/18 05:48:19;;;;;;;30.10;24.27;;;19.20;99.90;;;;;;5082560;28;20063;-80
2021/06/18 05:50:45;;;;;;;33.78;26.02;;;19.10;99.90;;;;;;5053307;28;20048;-81
2021/06/18 05:53:11;;;;;;;32.10;24.63;;;19.10;99.90;;;;;;5088460;28;20139;-80
2021/06/18 05:55:36;;;;;;;34.15;24.83;;;19.10;99.90;;;;;;5069188;28;20131;-81
2021/06/18 05:58:02;;;;;;;30.63;23.95;;;19.10;99.90;;;;;;5088098;28;20040;-80
2021/06/18 06:00:28;;;;;;;29.98;25.17;;;19.10;99.90;;;;;;5054114;28;20388;-81
2021/06/18 06:02:55;;;;;;;41.38;29.08;;;19.20;99.90;;;;;;5046105;28;20497;-81
2021/06/18 06:05:21;;;;;;;31.02;24.77;;;19.30;99.90;;;;;;5045373;28;20131;-81
2021/06/18 06:07:48;;;;;;;34.45;26.33;;;19.30;99.90;;;;;;5082384;28;20185;-81
2021/06/18 06:10:14;;;;;;;33.92;25.80;;;19.40;99.90;;;;;;5073837;28;20040;-80
2021/06/18 06:12:41;;;;;;;34.13;26.98;;;19.40;99.90;;;;;;5107199;27;20063;-80
2021/06/18 06:15:08;;;;;;;39.50;26.27;;;19.40;99.90;;;;;;5069907;28;20044;-81
2021/06/18 06:17:34;;;;;;;53.33;31.80;;;19.40;99.90;;;;;;5090793;28;20044;-80
2021/06/18 06:20:01;;;;;;;44.13;30.33;;;19.40;99.90;;;;;;5103570;28;20516;-80
2021/06/18 06:22:27;;;;;;;40.15;30.60;;;19.40;99.90;;;;;;5108767;28;20036;-80
2021/06/18 06:24:52;;;;;;;49.58;31.33;;;19.40;99.90;;;;;;5075976;27;20055;-80
2021/06/18 06:27:19;;;;;;;40.83;29.65;;;19.40;99.90;;;;;;5072803;28;20039;-80
2021/06/18 06:29:45;;;;;;;47.40;30.98;;;19.50;99.90;;;;;;5070921;28;20071;-81
2021/06/18 06:32:10;;;;;;;41.28;30.35;;;19.50;99.90;;;;;;5076613;28;20078;-80
2021/06/18 06:34:36;;;;;;;42.78;30.00;;;19.50;99.90;;;;;;5096939;28;20645;-80
2021/06/18 06:40:43;;;;;;;38.25;26.95;;;19.60;99.90;;;;;;5096852;28;20078;-80
2021/06/18 06:43:09;;;;;;;35.75;25.85;;;19.60;99.90;;;;;;5087790;28;20495;-80
2021/06/18 06:45:36;;;;;;;39.75;27.58;;;19.60;99.90;;;;;;5107389;28;20078;-80
2021/06/18 06:48:03;;;;;;;37.10;26.55;;;19.60;99.90;;;;;;5097155;27;20067;-80
2021/06/18 06:50:28;;;;;;;44.72;28.95;;;19.60;99.90;;;;;;5047072;28;20043;-81
2021/06/18 06:52:54;;;;;;;36.20;25.75;;;19.70;99.90;;;;;;5087968;28;20051;-80
2021/06/18 06:55:20;;;;;;;31.80;23.10;;;19.70;99.90;;;;;;5087338;28;20846;-80
2021/06/18 06:57:46;;;;;;;33.45;23.45;;;19.70;99.90;;;;;;5090264;28;20047;-81
2021/06/18 07:00:12;;;;;;;33.83;23.58;;;19.70;99.90;;;;;;5086339;28;20043;-80
2021/06/18 07:02:38;;;;;;;31.75;23.67;;;19.70;99.90;;;;;;5106526;28;20044;-81
2021/06/18 07:05:05;;;;;;;31.10;22.45;;;19.70;99.90;;;;;;5102583;28;20071;-81
2021/06/18 07:07:31;;;;;;;34.15;24.20;;;19.80;99.90;;;;;;5105299;28;20521;-80
2021/06/18 07:09:57;;;;;;;26.45;20.70;;;19.80;99.90;;;;;;5071566;28;20117;-80
2021/06/18 07:12:23;;;;;;;27.63;20.50;;;19.80;99.90;;;;;;5087015;28;20091;-81
2021/06/18 07:14:49;;;;;;;26.25;20.83;;;19.90;99.90;;;;;;5080821;28;20040;-82
2021/06/18 07:17:15;;;;;;;27.15;19.70;;;19.90;99.90;;;;;;5089178;28;20054;-81
2021/06/18 07:19:41;;;;;;;21.33;17.92;;;19.90;99.90;;;;;;5064106;28;20044;-81
2021/06/18 07:22:07;;;;;;;24.52;18.77;;;20.00;99.90;;;;;;5086167;28;20051;-81
2021/06/18 07:24:34;;;;;;;21.27;17.45;;;20.00;99.90;;;;;;5052041;28;20059;-82
2021/06/18 07:27:00;;;;;;;24.52;19.70;;;20.10;99.90;;;;;;5050281;28;20468;-81
2021/06/18 07:29:26;;;;;;;18.83;16.65;;;20.10;99.90;;;;;;5086811;28;20139;-80
2021/06/18 07:31:57;;;;;;;22.63;19.63;;;20.20;99.90;;;;;;5088519;28;20043;-80
2021/06/18 07:34:23;;;;;;;21.83;18.53;;;20.20;99.90;;;;;;5087305;28;20043;-80
2021/06/18 07:36:49;;;;;;;20.08;17.88;;;20.20;99.90;;;;;;5063292;28;20036;-80
2021/06/18 07:39:15;;;;;;;20.27;18.17;;;20.20;99.90;;;;;;5085276;28;20042;-81
2021/06/18 07:41:41;;;;;;;18.70;16.48;;;20.20;99.90;;;;;;5080805;28;20044;-80
2021/06/18 07:44:07;;;;;;;21.17;18.98;;;20.30;99.90;;;;;;5046497;28;20101;-81
2021/06/18 07:46:34;;;;;;;20.58;18.48;;;20.30;99.90;;;;;;5061953;28;20611;-81
2021/06/18 07:49:00;;;;;;;20.83;18.63;;;20.30;99.90;;;;;;5078548;28;20092;-80
2021/06/18 07:51:26;;;;;;;22.77;20.38;;;20.40;99.90;;;;;;5084289;28;20475;-80
2021/06/18 07:53:51;;;;;;;22.27;20.00;;;20.40;99.90;;;;;;5096703;28;20048;-80
2021/06/18 07:56:23;;;;;;;28.30;23.45;;;20.40;99.90;;;;;;5065518;28;20043;-81
2021/06/18 07:58:50;;;;;;;24.55;21.88;;;20.50;99.90;;;;;;5084769;28;20051;-81
2021/06/18 08:01:16;;;;;;;25.67;23.00;;;20.50;99.90;;;;;;5079624;28;20044;-80
2021/06/18 08:03:42;;;;;;;30.00;25.65;;;20.50;99.90;;;;;;5106245;28;20779;-80
2021/06/18 08:06:08;;;;;;;25.48;22.40;;;20.60;99.90;;;;;;5064442;28;20046;-81
2021/06/18 08:08:34;;;;;;;26.02;21.77;;;20.70;99.90;;;;;;5061286;28;20504;-81
2021/06/18 08:11:00;;;;;;;24.90;22.20;;;20.70;99.90;;;;;;5064943;28;20044;-81
2021/06/18 08:13:26;;;;;;;25.63;22.92;;;20.70;99.90;;;;;;5085135;28;20758;-81
2021/06/18 08:15:52;;;;;;;23.55;21.23;;;20.80;99.90;;;;;;5047032;28;20399;-81
2021/06/18 08:18:18;;;;;;;27.38;23.23;;;20.80;99.90;;;;;;5066931;28;20044;-80
2021/06/18 08:20:44;;;;;;;25.45;22.83;;;20.80;99.90;;;;;;5055307;28;20617;-80
2021/06/18 08:23:10;;;;;;;22.45;20.25;;;20.80;99.90;;;;;;5069870;28;20104;-80
2021/06/18 08:25:36;;;;;;;23.88;21.35;;;20.90;99.90;;;;;;5071312;28;20040;-80
2021/06/18 08:28:02;;;;;;;21.45;19.25;;;20.90;99.90;;;;;;5088471;28;20484;-80
2021/06/18 08:30:28;;;;;;;23.17;20.88;;;20.90;99.90;;;;;;5070853;28;20047;-80
2021/06/18 08:32:54;;;;;;;22.63;20.33;;;20.90;99.90;;;;;;5036228;28;20092;-80
2021/06/18 08:35:21;;;;;;;25.25;22.63;;;20.90;99.90;;;;;;5071594;28;20074;-79
2021/06/18 08:37:49;;;;;;;23.10;20.92;;;21.00;99.90;;;;;;5051981;28;20043;-81
2021/06/18 08:40:16;;;;;;;23.83;21.50;;;21.00;99.90;;;;;;5028460;28;20051;-80
2021/06/18 08:42:44;;;;;;;23.17;20.52;;;21.00;99.90;;;;;;5071651;28;20050;-81
2021/06/18 08:45:10;;;;;;;23.58;21.33;;;21.00;99.90;;;;;;5073155;28;21106;-81
2021/06/18 08:47:39;;;;;;;23.30;21.10;;;21.10;99.90;;;;;;5049209;28;20050;-81
2021/06/18 08:50:06;;;;;;;23.58;21.20;;;21.10;99.90;;;;;;5089878;28;20094;-80
2021/06/18 08:52:36;;;;;;;22.65;20.38;;;21.20;99.90;;;;;;5058072;28;20138;-80
2021/06/18 08:55:02;;;;;;;20.13;18.23;;;21.20;99.90;;;;;;5056574;28;20039;-81
2021/06/18 08:57:28;;;;;;;22.15;19.58;;;21.20;99.90;;;;;;5051390;28;20203;-80
2021/06/18 08:59:54;;;;;;;20.27;18.30;;;21.20;99.90;;;;;;5020182;28;20543;-81
2021/06/18 09:02:20;;;;;;;19.85;17.83;;;21.20;99.90;;;;;;5057870;28;20462;-82
2021/06/18 09:05:13;;;;;;;19.77;17.88;;;21.20;99.90;;;;;;5055264;28;20048;-81
2021/06/18 09:07:58;;;;;;;19.60;17.70;;;21.20;99.90;;;;;;5077575;28;20043;-81
2021/06/18 09:10:34;;;;;;;20.88;18.75;;;21.20;99.90;;;;;;5106301;28;20043;-80
2021/06/18 09:13:16;;;;;;;20.23;18.23;;;21.20;99.90;;;;;;5072963;28;20479;-80
2021/06/18 09:15:51;;;;;;;19.25;17.27;;;21.10;99.90;;;;;;5090147;28;20044;-81
2021/06/18 09:18:37;;;;;;;20.02;18.13;;;21.10;99.90;;;;;;5105188;28;20044;-81
2021/06/18 09:21:06;;;;;;;20.77;18.58;;;21.10;99.90;;;;;;5089641;28;20491;-80
2021/06/18 09:23:38;;;;;;;18.92;17.23;;;21.00;99.90;;;;;;5109746;28;20118;-81
2021/06/18 09:26:23;;;;;;;;;;;21.00;99.90;;;;;;5089297;28;20035;-80
2021/06/18 09:29:12;;;;;;;19.23;17.48;;;21.00;99.90;;;;;;5090399;28;20370;-81
2021/06/18 09:31:47;;;;;;;19.90;17.80;;;21.00;99.90;;;;;;5090403;28;20576;-81
2021/06/18 09:34:14;;;;;;;18.45;16.60;;;20.90;99.90;;;;;;5091155;28;20036;-80
2021/06/18 09:36:41;;;;;;;16.65;14.95;;;20.90;99.90;;;;;;5090777;28;20039;-81
2021/06/18 09:39:09;;;;;;;17.73;15.93;;;20.90;99.90;;;;;;5109821;28;20088;-80
2021/06/18 09:41:35;;;;;;;18.17;16.48;;;20.90;99.90;;;;;;5094969;28;20821;-80
2021/06/18 09:44:18;;;;;;;17.52;15.95;;;20.90;99.90;;;;;;5087482;28;20075;-81
2021/06/18 09:46:56;;;;;;;20.40;15.95;;;21.00;99.90;;;;;;5091373;28;20032;-81
2021/06/18 09:49:38;;;;;;;19.20;17.25;;;20.90;99.90;;;;;;5083867;28;20052;-81
2021/06/18 09:52:09;;;;;;;18.02;16.23;;;21.00;99.90;;;;;;5077448;28;20063;-80
2021/06/18 09:54:41;;;;;;;16.67;15.13;;;21.00;99.90;;;;;;5103159;28;20053;-81
2021/06/18 09:57:11;;;;;;;17.40;15.82;;;21.00;99.90;;;;;;5071925;28;20048;-81
2021/06/18 10:00:04;;;;;;;17.73;16.05;;;21.00;99.90;;;;;;5086973;28;20453;-81
2021/06/18 10:02:46;;;;;;;16.60;15.10;;;21.00;99.90;;;;;;5105379;28;20035;-81
2021/06/18 10:05:15;;;;;;;18.05;16.20;;;21.00;99.90;;;;;;5101697;28;20119;-80
2021/06/18 10:07:43;;;;;;;20.05;16.15;;;21.00;99.90;;;;;;5087631;28;20100;-80
2021/06/18 10:10:12;;;;;;;16.38;14.85;;;21.00;99.90;;;;;;5070434;28;20083;-80
2021/06/18 10:12:40;;;;;;;16.27;14.73;;;21.00;99.90;;;;;;5085043;28;20051;-81
2021/06/18 10:15:09;;;;;;;15.68;14.20;;;21.10;99.90;;;;;;5102130;28;20055;-82
2021/06/18 10:17:37;;;;;;;16.35;14.85;;;21.10;99.90;;;;;;5081218;28;20384;-83
2021/06/18 10:20:16;;;;;;;16.02;14.43;;;21.00;99.90;;;;;;5077620;28;20054;-81
2021/06/18 10:23:24;;;;;;;18.60;16.83;;;21.10;99.90;;;;;;5098109;28;20055;-82
2021/06/18 10:25:54;;;;;;;15.82;14.23;;;21.10;99.90;;;;;;5092458;28;20472;-81
2021/06/18 10:28:30;;;;;;;15.88;14.38;;;21.10;99.90;;;;;;5089209;28;20093;-81
2021/06/18 10:30:58;;;;;;;16.20;14.65;;;21.10;99.90;;;;;;5080286;28;20459;-81
2021/06/18 10:33:29;;;;;;;15.05;13.52;;;21.10;99.90;;;;;;5089114;28;20047;-81
2021/06/18 10:36:05;;;;;;;15.00;13.70;;;21.10;99.90;;;;;;5096502;28;20039;-81
2021/06/18 10:38:36;;;;;;;15.98;14.38;;;21.20;99.90;;;;;;5093858;28;20045;-81
2021/06/18 10:41:23;;;;;;;16.60;15.10;;;21.20;99.90;;;;;;5077453;28;20052;-81
2021/06/18 10:43:56;;;;;;;16.67;14.98;;;21.30;99.90;;;;;;5053639;28;20079;-81
2021/06/18 10:46:25;;;;;;;16.90;15.27;;;21.30;99.90;;;;;;5095682;28;20050;-81
2021/06/18 10:48:51;;;;;;;15.85;14.20;;;21.40;99.90;;;;;;5102905;28;20105;-83
2021/06/18 10:51:26;;;;;;;16.30;14.73;;;21.40;99.90;;;;;;5097665;28;20070;-82
2021/06/18 10:54:02;;;;;;;15.85;14.35;;;21.40;99.90;;;;;;5064737;28;20497;-82
2021/06/18 10:56:47;;;;;;;14.35;12.88;;;21.50;99.90;;;;;;5073495;28;20039;-82
2021/06/18 10:59:19;;;;;;;13.38;12.18;;;21.50;99.90;;;;;;5066466;28;20063;-81
2021/06/18 11:01:46;;;;;;;13.30;12.02;;;21.50;99.90;;;;;;5088229;28;20090;-81
2021/06/18 11:04:12;;;;;;;13.60;12.20;;;21.50;99.90;;;;;;5084435;28;20044;-81
2021/06/18 11:06:47;;;;;;;12.15;10.50;;;21.60;99.90;;;;;;5101840;28;20114;-82
2021/06/18 11:09:32;;;;;;;12.95;11.52;;;21.60;99.90;;;;;;5101053;28;20043;-81
2021/06/18 11:12:18;;;;;;;14.00;10.82;;;21.70;99.90;;;;;;5087154;28;20044;-81
2021/06/18 11:14:44;;;;;;;11.93;10.73;;;21.70;99.90;;;;;;5107337;28;20047;-82
2021/06/18 11:17:49;;;;;;;11.73;10.52;;;21.80;99.90;;;;;;5053779;28;20046;-82
2021/06/18 11:20:15;;;;;;;11.32;10.13;;;21.80;99.90;;;;;;5092520;28;20131;-81
2021/06/18 11:22:52;;;;;;;10.35;9.35;;;21.80;99.90;;;;;;5101192;28;20130;-82
2021/06/18 11:25:36;;;;;;;11.52;10.38;;;21.80;99.90;;;;;;5077212;28;20414;-82
2021/06/18 11:28:21;;;;;;;10.65;9.75;;;21.90;99.90;;;;;;5085068;28;20046;-81
2021/06/18 11:31:06;;;;;;;11.02;9.80;;;21.90;99.90;;;;;;5080543;28;20040;-80
2021/06/18 11:33:42;;;;;;;10.25;9.30;;;22.00;99.90;;;;;;5082607;28;20044;-81
2021/06/18 11:36:21;;;;;;;11.05;10.05;;;22.00;99.90;;;;;;5105166;28;20059;-81
2021/06/18 11:39:15;;;;;;;12.38;10.43;;;22.10;99.90;;;;;;5072782;28;20043;-81
2021/06/18 11:41:43;;;;;;;10.70;9.35;;;22.10;99.90;;;;;;5098302;28;20472;-81
2021/06/18 11:44:12;;;;;;;11.05;10.02;;;22.10;99.90;;;;;;5053054;28;20074;-81
2021/06/18 11:46:38;;;;;;;10.63;8.77;;;22.10;99.90;;;;;;5093619;28;20043;-80
2021/06/18 11:49:18;;;;;;;9.57;8.68;;;22.10;99.90;;;;;;5103376;28;20071;-82
2021/06/18 11:51:52;;;;;;;11.98;10.07;;;22.10;99.90;;;;;;5103488;28;20048;-81
2021/06/18 11:54:35;;;;;;;11.00;9.90;;;22.10;99.90;;;;;;5100746;28;20039;-81
2021/06/18 11:57:05;;;;;;;9.85;8.88;;;22.20;99.90;;;;;;5091311;28;20102;-81
2021/06/18 11:59:32;;;;;;;10.13;8.85;;;22.20;99.90;;;;;;5091820;28;20043;-81
2021/06/18 12:02:11;;;;;;;11.18;10.00;;;22.30;99.90;;;;;;5110874;28;20088;-81
2021/06/18 12:04:37;;;;;;;10.40;9.40;;;22.30;99.90;;;;;;5087871;28;20047;-81
2021/06/18 12:07:03;;;;;;;10.38;9.35;;;22.40;99.90;;;;;;5072105;28;20449;-83
2021/06/18 12:09:37;;;;;;;11.10;9.27;;;22.40;99.90;;;;;;5072423;28;20419;-82
2021/06/18 12:12:04;;;;;;;11.57;10.40;;;22.50;99.90;;;;;;5038887;28;20071;-82
2021/06/18 12:14:43;;;;;;;11.38;10.23;;;22.50;99.90;;;;;;5073952;28;20170;-82
2021/06/18 12:17:10;;;;;;;10.25;9.25;;;22.50;99.90;;;;;;5053817;28;20051;-82
2021/06/18 12:19:44;;;;;;;10.98;9.75;;;22.50;99.90;;;;;;5074096;28;20127;-82
2021/06/18 12:22:12;;;;;;;14.73;9.90;;;22.60;99.90;;;;;;5071905;28;20051;-81
2021/06/18 12:24:40;;;;;;;12.88;9.30;;;22.60;99.90;;;;;;5069786;28;20063;-81
2021/06/18 12:27:09;;;;;;;10.90;9.70;;;22.60;99.90;;;;;;5071679;28;20123;-81
2021/06/18 12:29:52;;;;;;;11.48;10.38;;;22.70;99.90;;;;;;5050106;28;20052;-81
2021/06/18 12:32:20;;;;;;;12.93;10.15;;;22.70;99.90;;;;;;5066769;28;20043;-82
2021/06/18 12:34:49;;;;;;;11.68;10.55;;;22.60;99.90;;;;;;5067705;28;20054;-81
2021/06/18 12:37:18;;;;;;;12.52;11.32;;;22.60;99.90;;;;;;5088787;28;20139;-81
2021/06/18 12:40:08;;;;;;;11.48;10.10;;;22.60;99.90;;;;;;5072078;28;20565;-81
2021/06/18 12:42:47;;;;;;;11.73;10.63;;;22.60;99.90;;;;;;5065429;28;20039;-81
2021/06/18 12:45:30;;;;;;;12.20;10.90;;;22.70;99.90;;;;;;5090694;28;20416;-83